sensor_id;sensor_type;location;lat;lon;timestamp;temperature;humidity
5222;DHT22;2630;52.036;8.514;2023-01-30T00:00:32;3.00;99.90
5222;DHT22;2630;52.036;8.514;2023-01-30T00:02:57;3.00;99.90
5222;DHT22;2630;52.036;8.514;2023-01-30T00:05:23;3.00;99.90
5222;DHT22;2630;52.036;8.514;2023-01-30T00:07:49;3.00;99.90
5222;DHT22;2630;52.036;8.514;2023-01-30T00:10:15;3.10;99.90
5222;DHT22;2630;52.036;8.514;2023-01-30T00:12:40;3.20;99.90
5222;DHT22;2630;52.036;8.514;2023-01-30T00:15:06;3.10;99.90
5222;DHT22;2630;52.036;8.514;2023-01-30T00:17:32;3.20;99.90
5222;DHT22;2630;52.036;8.514;2023-01-30T00:19:58;3.10;99.90
5222;DHT22;2630;52.036;8.514;2023-01-30T00:22:23;3.10;99.90
5222;DHT22;2630;52.036;8.514;2023-01-30T00:24:49;3.20;99.90
5222;DHT22;2630;52.036;8.514;2023-01-30T00:27:15;3.20;99.90
5222;DHT22;2630;52.036;8.514;2023-01-30T00:29:40;3.20;99.90
5222;DHT22;2630;52.036;8.514;2023-01-30T00:36:58;3.10;99.90
5222;DHT22;2630;52.036;8.514;2023-01-30T00:39:24;3.20;99.90
5222;DHT22;2630;52.036;8.514;2023-01-30T00:41:49;3.20;99.90
5222;DHT22;2630;52.036;8.514;2023-01-30T00:44:33;3.30;99.90
5222;DHT22;2630;52.036;8.514;2023-01-30T00:47:17;3.30;99.90
5222;DHT22;2630;52.036;8.514;2023-01-30T00:49:43;3.30;99.90
5222;DHT22;2630;52.036;8.514;2023-01-30T00:52:08;3.30;99.90
5222;DHT22;2630;52.036;8.514;2023-01-30T00:54:34;3.30;99.90
5222;DHT22;2630;52.036;8.514;2023-01-30T00:57:00;3.30;99.90
5222;DHT22;2630;52.036;8.514;2023-01-30T00:59:26;3.30;99.90
5222;DHT22;2630;52.036;8.514;2023-01-30T01:01:52;3.40;99.90
5222;DHT22;2630;52.036;8.514;2023-01-30T01:04:18;3.30;99.90
5222;DHT22;2630;52.036;8.514;2023-01-30T01:06:44;3.40;99.90
5222;DHT22;2630;52.036;8.514;2023-01-30T01:11:35;3.40;99.90
5222;DHT22;2630;52.036;8.514;2023-01-30T01:26:20;3.30;99.90
5222;DHT22;2630;52.036;8.514;2023-01-30T01:28:45;3.30;99.90
5222;DHT22;2630;52.036;8.514;2023-01-30T01:31:13;3.30;99.90
5222;DHT22;2630;52.036;8.514;2023-01-30T01:33:39;3.30;99.90
5222;DHT22;2630;52.036;8.514;2023-01-30T01:36:05;3.30;99.90
5222;DHT22;2630;52.036;8.514;2023-01-30T01:40:58;3.30;99.90
5222;DHT22;2630;52.036;8.514;2023-01-30T01:48:35;3.30;99.90
5222;DHT22;2630;52.036;8.514;2023-01-30T01:51:10;3.30;99.90
5222;DHT22;2630;52.036;8.514;2023-01-30T01:53:42;3.30;99.90
5222;DHT22;2630;52.036;8.514;2023-01-30T01:56:09;3.30;99.90
5222;DHT22;2630;52.036;8.514;2023-01-30T01:58:42;3.40;99.90
5222;DHT22;2630;52.036;8.514;2023-01-30T02:01:10;3.40;99.90
5222;DHT22;2630;52.036;8.514;2023-01-30T02:03:40;3.50;99.90
5222;DHT22;2630;52.036;8.514;2023-01-30T02:06:07;3.50;99.90
5222;DHT22;2630;52.036;8.514;2023-01-30T02:08:39;3.40;99.90
5222;DHT22;2630;52.036;8.514;2023-01-30T02:13:34;3.50;99.90
5222;DHT22;2630;52.036;8.514;2023-01-30T02:16:02;3.60;99.90
5222;DHT22;2630;52.036;8.514;2023-01-30T02:18:29;3.60;99.90
5222;DHT22;2630;52.036;8.514;2023-01-30T02:37:11;3.80;99.90
5222;DHT22;2630;52.036;8.514;2023-01-30T02:42:42;3.80;99.90
5222;DHT22;2630;52.036;8.514;2023-01-30T02:48:05;3.80;99.90
5222;DHT22;2630;52.036;8.514;2023-01-30T02:50:35;3.90;99.90
5222;DHT22;2630;52.036;8.514;2023-01-30T02:53:04;3.90;99.90
5222;DHT22;2630;52.036;8.514;2023-01-30T02:55:30;3.90;99.90
5222;DHT22;2630;52.036;8.514;2023-01-30T02:57:56;3.90;99.90
5222;DHT22;2630;52.036;8.514;2023-01-30T03:05:58;4.00;99.90
5222;DHT22;2630;52.036;8.514;2023-01-30T03:08:35;4.10;99.90
5222;DHT22;2630;52.036;8.514;2023-01-30T03:11:06;4.10;99.90
5222;DHT22;2630;52.036;8.514;2023-01-30T03:14:01;4.10;99.90
5222;DHT22;2630;52.036;8.514;2023-01-30T03:21:25;4.20;99.90
5222;DHT22;2630;52.036;8.514;2023-01-30T03:26:19;4.20;99.90
5222;DHT22;2630;52.036;8.514;2023-01-30T03:31:14;4.30;99.90
5222;DHT22;2630;52.036;8.514;2023-01-30T03:36:06;4.30;99.90
5222;DHT22;2630;52.036;8.514;2023-01-30T03:38:33;4.30;99.90
5222;DHT22;2630;52.036;8.514;2023-01-30T03:40:59;4.30;99.90
5222;DHT22;2630;52.036;8.514;2023-01-30T03:43:25;4.30;99.90
5222;DHT22;2630;52.036;8.514;2023-01-30T03:50:43;4.40;99.90
5222;DHT22;2630;52.036;8.514;2023-01-30T03:53:08;4.40;99.90
5222;DHT22;2630;52.036;8.514;2023-01-30T03:55:34;4.40;99.90
5222;DHT22;2630;52.036;8.514;2023-01-30T04:02:51;4.40;99.90
5222;DHT22;2630;52.036;8.514;2023-01-30T04:05:19;4.50;99.90
5222;DHT22;2630;52.036;8.514;2023-01-30T04:07:44;4.50;99.90
5222;DHT22;2630;52.036;8.514;2023-01-30T04:12:40;4.50;99.90
5222;DHT22;2630;52.036;8.514;2023-01-30T04:19:59;4.50;99.90
5222;DHT22;2630;52.036;8.514;2023-01-30T04:22:24;4.50;99.90
5222;DHT22;2630;52.036;8.514;2023-01-30T04:27:16;4.60;99.90
5222;DHT22;2630;52.036;8.514;2023-01-30T04:29:41;4.60;99.90
5222;DHT22;2630;52.036;8.514;2023-01-30T04:36:59;4.60;99.90
5222;DHT22;2630;52.036;8.514;2023-01-30T04:39:24;4.70;99.90
5222;DHT22;2630;52.036;8.514;2023-01-30T04:41:51;4.70;99.90
5222;DHT22;2630;52.036;8.514;2023-01-30T04:44:16;4.70;99.90
5222;DHT22;2630;52.036;8.514;2023-01-30T04:46:42;4.70;99.90
5222;DHT22;2630;52.036;8.514;2023-01-30T04:51:35;4.70;99.90
5222;DHT22;2630;52.036;8.514;2023-01-30T04:54:01;4.80;99.90
5222;DHT22;2630;52.036;8.514;2023-01-30T04:56:26;4.80;99.90
5222;DHT22;2630;52.036;8.514;2023-01-30T04:58:52;4.90;99.90
5222;DHT22;2630;52.036;8.514;2023-01-30T05:01:24;4.90;99.90
5222;DHT22;2630;52.036;8.514;2023-01-30T05:03:51;5.00;99.90
5222;DHT22;2630;52.036;8.514;2023-01-30T05:06:17;5.00;99.90
5222;DHT22;2630;52.036;8.514;2023-01-30T05:08:43;5.00;99.90
5222;DHT22;2630;52.036;8.514;2023-01-30T05:11:08;5.00;99.90
5222;DHT22;2630;52.036;8.514;2023-01-30T05:16:00;5.10;99.90
5222;DHT22;2630;52.036;8.514;2023-01-30T05:20:51;5.20;99.90
5222;DHT22;2630;52.036;8.514;2023-01-30T05:25:43;5.30;99.90
5222;DHT22;2630;52.036;8.514;2023-01-30T05:28:08;5.30;99.90
5222;DHT22;2630;52.036;8.514;2023-01-30T05:30:34;5.30;99.90
5222;DHT22;2630;52.036;8.514;2023-01-30T05:32:59;5.30;99.90
5222;DHT22;2630;52.036;8.514;2023-01-30T05:35:25;5.40;99.90
5222;DHT22;2630;52.036;8.514;2023-01-30T05:40:17;5.40;99.90
5222;DHT22;2630;52.036;8.514;2023-01-30T05:42:43;5.40;99.90
5222;DHT22;2630;52.036;8.514;2023-01-30T05:47:34;5.40;99.90
5222;DHT22;2630;52.036;8.514;2023-01-30T05:50:00;5.50;99.90
5222;DHT22;2630;52.036;8.514;2023-01-30T05:54:51;5.50;99.90
5222;DHT22;2630;52.036;8.514;2023-01-30T05:59:43;5.50;99.90
5222;DHT22;2630;52.036;8.514;2023-01-30T06:04:34;5.50;99.90
5222;DHT22;2630;52.036;8.514;2023-01-30T06:09:26;5.50;99.90
5222;DHT22;2630;52.036;8.514;2023-01-30T06:11:52;5.50;99.90
5222;DHT22;2630;52.036;8.514;2023-01-30T06:14:19;5.50;99.90
5222;DHT22;2630;52.036;8.514;2023-01-30T06:16:45;5.50;99.90
5222;DHT22;2630;52.036;8.514;2023-01-30T06:21:36;5.50;99.90
5222;DHT22;2630;52.036;8.514;2023-01-30T06:24:02;5.50;99.90
5222;DHT22;2630;52.036;8.514;2023-01-30T06:26:27;5.50;99.90
5222;DHT22;2630;52.036;8.514;2023-01-30T06:28:53;5.50;99.90
5222;DHT22;2630;52.036;8.514;2023-01-30T06:31:19;5.50;99.90
5222;DHT22;2630;52.036;8.514;2023-01-30T06:33:44;5.60;99.90
5222;DHT22;2630;52.036;8.514;2023-01-30T06:36:10;5.60;99.90
5222;DHT22;2630;52.036;8.514;2023-01-30T06:38:35;5.60;99.90
5222;DHT22;2630;52.036;8.514;2023-01-30T06:41:01;5.50;99.90
5222;DHT22;2630;52.036;8.514;2023-01-30T06:43:26;5.60;99.90
5222;DHT22;2630;52.036;8.514;2023-01-30T06:45:52;5.60;99.90
5222;DHT22;2630;52.036;8.514;2023-01-30T06:48:18;5.60;99.90
5222;DHT22;2630;52.036;8.514;2023-01-30T06:50:45;5.60;99.90
5222;DHT22;2630;52.036;8.514;2023-01-30T06:53:12;5.60;99.90
5222;DHT22;2630;52.036;8.514;2023-01-30T06:55:37;5.60;99.90
5222;DHT22;2630;52.036;8.514;2023-01-30T06:58:08;5.70;99.90
5222;DHT22;2630;52.036;8.514;2023-01-30T07:00:34;5.70;99.90
5222;DHT22;2630;52.036;8.514;2023-01-30T07:03:00;5.70;99.90
5222;DHT22;2630;52.036;8.514;2023-01-30T07:05:26;5.70;99.90
5222;DHT22;2630;52.036;8.514;2023-01-30T07:07:53;5.80;99.90
5222;DHT22;2630;52.036;8.514;2023-01-30T07:10:19;5.80;99.90
5222;DHT22;2630;52.036;8.514;2023-01-30T07:15:12;5.70;99.90
5222;DHT22;2630;52.036;8.514;2023-01-30T07:20:08;5.60;99.90
5222;DHT22;2630;52.036;8.514;2023-01-30T07:22:34;5.70;99.90
5222;DHT22;2630;52.036;8.514;2023-01-30T07:25:00;5.70;99.90
5222;DHT22;2630;52.036;8.514;2023-01-30T07:27:25;5.70;99.90
5222;DHT22;2630;52.036;8.514;2023-01-30T07:32:18;5.60;99.90
5222;DHT22;2630;52.036;8.514;2023-01-30T07:34:47;5.60;99.90
5222;DHT22;2630;52.036;8.514;2023-01-30T07:37:13;5.60;99.90
5222;DHT22;2630;52.036;8.514;2023-01-30T07:39:39;5.50;99.90
5222;DHT22;2630;52.036;8.514;2023-01-30T07:42:05;5.40;99.90
5222;DHT22;2630;52.036;8.514;2023-01-30T07:44:31;5.40;99.90
5222;DHT22;2630;52.036;8.514;2023-01-30T07:49:25;5.30;99.90
5222;DHT22;2630;52.036;8.514;2023-01-30T07:54:17;5.30;99.90
5222;DHT22;2630;52.036;8.514;2023-01-30T07:59:10;5.40;99.90
5222;DHT22;2630;52.036;8.514;2023-01-30T08:01:35;5.50;99.90
5222;DHT22;2630;52.036;8.514;2023-01-30T08:04:01;5.50;99.90
5222;DHT22;2630;52.036;8.514;2023-01-30T08:06:26;5.50;99.90
5222;DHT22;2630;52.036;8.514;2023-01-30T08:08:52;5.50;99.90
5222;DHT22;2630;52.036;8.514;2023-01-30T08:11:18;5.60;99.90
5222;DHT22;2630;52.036;8.514;2023-01-30T08:13:43;5.70;99.90
5222;DHT22;2630;52.036;8.514;2023-01-30T08:18:35;6.10;99.90
5222;DHT22;2630;52.036;8.514;2023-01-30T08:25:55;6.20;99.90
5222;DHT22;2630;52.036;8.514;2023-01-30T08:28:20;6.20;99.90
5222;DHT22;2630;52.036;8.514;2023-01-30T08:30:46;6.20;99.90
5222;DHT22;2630;52.036;8.514;2023-01-30T08:33:13;6.20;99.90
5222;DHT22;2630;52.036;8.514;2023-01-30T08:35:39;6.20;99.90
5222;DHT22;2630;52.036;8.514;2023-01-30T08:38:05;6.20;99.90
5222;DHT22;2630;52.036;8.514;2023-01-30T08:40:33;6.20;99.90
5222;DHT22;2630;52.036;8.514;2023-01-30T08:42:59;6.30;99.90
5222;DHT22;2630;52.036;8.514;2023-01-30T08:45:25;6.20;99.90
5222;DHT22;2630;52.036;8.514;2023-01-30T08:47:50;6.20;99.90
5222;DHT22;2630;52.036;8.514;2023-01-30T08:50:16;6.30;99.90
5222;DHT22;2630;52.036;8.514;2023-01-30T08:52:41;6.30;99.90
5222;DHT22;2630;52.036;8.514;2023-01-30T08:55:07;6.30;99.90
5222;DHT22;2630;52.036;8.514;2023-01-30T08:57:34;6.30;99.90
5222;DHT22;2630;52.036;8.514;2023-01-30T09:00:00;6.30;99.90
5222;DHT22;2630;52.036;8.514;2023-01-30T09:02:25;6.30;99.90
5222;DHT22;2630;52.036;8.514;2023-01-30T09:04:51;6.30;99.90
5222;DHT22;2630;52.036;8.514;2023-01-30T09:07:17;6.30;99.90
5222;DHT22;2630;52.036;8.514;2023-01-30T09:09:43;6.20;99.90
5222;DHT22;2630;52.036;8.514;2023-01-30T09:12:09;6.10;99.90
5222;DHT22;2630;52.036;8.514;2023-01-30T09:14:34;6.10;99.90
5222;DHT22;2630;52.036;8.514;2023-01-30T09:17:00;6.10;99.90
5222;DHT22;2630;52.036;8.514;2023-01-30T09:19:26;6.00;99.90
5222;DHT22;2630;52.036;8.514;2023-01-30T09:21:53;6.00;99.90
5222;DHT22;2630;52.036;8.514;2023-01-30T09:24:19;6.10;99.90
5222;DHT22;2630;52.036;8.514;2023-01-30T09:26:51;6.30;99.90
5222;DHT22;2630;52.036;8.514;2023-01-30T09:31:42;6.40;99.90
5222;DHT22;2630;52.036;8.514;2023-01-30T09:34:08;6.30;99.90
5222;DHT22;2630;52.036;8.514;2023-01-30T09:36:34;6.40;99.90
5222;DHT22;2630;52.036;8.514;2023-01-30T09:38:59;6.40;99.90
5222;DHT22;2630;52.036;8.514;2023-01-30T09:47:51;6.40;99.90
5222;DHT22;2630;52.036;8.514;2023-01-30T09:55:57;6.20;99.90
5222;DHT22;2630;52.036;8.514;2023-01-30T09:58:25;6.20;99.90
5222;DHT22;2630;52.036;8.514;2023-01-30T10:01:02;6.10;99.90
5222;DHT22;2630;52.036;8.514;2023-01-30T10:03:42;6.10;99.90
5222;DHT22;2630;52.036;8.514;2023-01-30T10:06:13;6.20;99.90
5222;DHT22;2630;52.036;8.514;2023-01-30T10:08:41;6.30;99.90
5222;DHT22;2630;52.036;8.514;2023-01-30T10:16:46;6.40;99.90
5222;DHT22;2630;52.036;8.514;2023-01-30T10:22:05;6.00;99.90
5222;DHT22;2630;52.036;8.514;2023-01-30T10:29:57;5.80;99.90
5222;DHT22;2630;52.036;8.514;2023-01-30T10:32:28;5.60;99.90
5222;DHT22;2630;52.036;8.514;2023-01-30T10:35:03;5.70;99.90
5222;DHT22;2630;52.036;8.514;2023-01-30T10:43:09;5.80;99.90
5222;DHT22;2630;52.036;8.514;2023-01-30T10:45:41;5.80;99.90
5222;DHT22;2630;52.036;8.514;2023-01-30T10:50:51;5.90;99.90
5222;DHT22;2630;52.036;8.514;2023-01-30T10:56:13;5.90;99.90
5222;DHT22;2630;52.036;8.514;2023-01-30T10:59:10;5.80;99.90
5222;DHT22;2630;52.036;8.514;2023-01-30T11:01:44;5.80;99.90
5222;DHT22;2630;52.036;8.514;2023-01-30T11:04:39;5.90;99.90
5222;DHT22;2630;52.036;8.514;2023-01-30T11:07:08;5.90;99.90
5222;DHT22;2630;52.036;8.514;2023-01-30T11:09:47;6.00;99.90
5222;DHT22;2630;52.036;8.514;2023-01-30T11:14:50;6.20;99.90
5222;DHT22;2630;52.036;8.514;2023-01-30T11:17:18;6.30;99.90
5222;DHT22;2630;52.036;8.514;2023-01-30T11:19:45;6.40;99.90
5222;DHT22;2630;52.036;8.514;2023-01-30T11:24:44;6.50;99.90
5222;DHT22;2630;52.036;8.514;2023-01-30T11:27:30;6.40;99.90
5222;DHT22;2630;52.036;8.514;2023-01-30T11:30:13;6.40;99.90
5222;DHT22;2630;52.036;8.514;2023-01-30T11:32:44;6.40;99.90
5222;DHT22;2630;52.036;8.514;2023-01-30T11:35:26;6.50;99.90
5222;DHT22;2630;52.036;8.514;2023-01-30T11:40:26;6.50;99.90
5222;DHT22;2630;52.036;8.514;2023-01-30T11:43:01;6.60;99.90
5222;DHT22;2630;52.036;8.514;2023-01-30T11:45:27;6.70;99.90
5222;DHT22;2630;52.036;8.514;2023-01-30T11:47:59;6.70;99.90
5222;DHT22;2630;52.036;8.514;2023-01-30T11:50:43;6.70;99.90
5222;DHT22;2630;52.036;8.514;2023-01-30T11:55:41;6.80;99.90
5222;DHT22;2630;52.036;8.514;2023-01-30T11:58:08;6.90;99.90
5222;DHT22;2630;52.036;8.514;2023-01-30T12:00:42;7.00;99.90
5222;DHT22;2630;52.036;8.514;2023-01-30T12:03:15;7.00;99.90
5222;DHT22;2630;52.036;8.514;2023-01-30T12:05:44;7.00;99.90
5222;DHT22;2630;52.036;8.514;2023-01-30T12:08:31;7.10;99.90
5222;DHT22;2630;52.036;8.514;2023-01-30T12:11:00;7.20;99.90
5222;DHT22;2630;52.036;8.514;2023-01-30T12:13:40;7.20;99.90
5222;DHT22;2630;52.036;8.514;2023-01-30T12:18:59;7.30;99.90
5222;DHT22;2630;52.036;8.514;2023-01-30T12:28:00;7.60;99.90
5222;DHT22;2630;52.036;8.514;2023-01-30T12:30:25;7.60;99.90
5222;DHT22;2630;52.036;8.514;2023-01-30T12:32:57;7.50;99.90
5222;DHT22;2630;52.036;8.514;2023-01-30T12:35:46;7.40;99.90
5222;DHT22;2630;52.036;8.514;2023-01-30T12:38:32;7.20;99.90
5222;DHT22;2630;52.036;8.514;2023-01-30T12:44:23;6.80;99.90
5222;DHT22;2630;52.036;8.514;2023-01-30T12:47:00;6.60;99.90
5222;DHT22;2630;52.036;8.514;2023-01-30T12:52:32;6.00;99.90
5222;DHT22;2630;52.036;8.514;2023-01-30T12:55:31;5.80;99.90
5222;DHT22;2630;52.036;8.514;2023-01-30T12:58:02;5.50;99.90
5222;DHT22;2630;52.036;8.514;2023-01-30T13:27:39;6.10;99.90
5222;DHT22;2630;52.036;8.514;2023-01-30T13:30:13;6.10;99.90
5222;DHT22;2630;52.036;8.514;2023-01-30T13:32:46;6.10;99.90
5222;DHT22;2630;52.036;8.514;2023-01-30T13:35:23;6.20;99.90
5222;DHT22;2630;52.036;8.514;2023-01-30T13:37:51;6.30;99.90
5222;DHT22;2630;52.036;8.514;2023-01-30T13:40:25;6.30;99.90
5222;DHT22;2630;52.036;8.514;2023-01-30T13:42:58;6.30;99.90
5222;DHT22;2630;52.036;8.514;2023-01-30T13:45:29;6.40;99.90
5222;DHT22;2630;52.036;8.514;2023-01-30T13:48:16;6.40;99.90
5222;DHT22;2630;52.036;8.514;2023-01-30T13:57:18;6.70;99.90
5222;DHT22;2630;52.036;8.514;2023-01-30T14:04:50;6.40;99.90
5222;DHT22;2630;52.036;8.514;2023-01-30T14:07:32;6.30;99.90
5222;DHT22;2630;52.036;8.514;2023-01-30T14:10:16;6.40;99.90
5222;DHT22;2630;52.036;8.514;2023-01-30T14:18:01;6.60;99.90
5222;DHT22;2630;52.036;8.514;2023-01-30T14:20:26;6.60;99.90
5222;DHT22;2630;52.036;8.514;2023-01-30T14:23:17;6.60;99.90
5222;DHT22;2630;52.036;8.514;2023-01-30T14:25:48;6.70;99.90
5222;DHT22;2630;52.036;8.514;2023-01-30T14:56:55;6.90;99.90
5222;DHT22;2630;52.036;8.514;2023-01-30T15:05:03;6.70;99.90
5222;DHT22;2630;52.036;8.514;2023-01-30T15:07:52;6.70;99.90
5222;DHT22;2630;52.036;8.514;2023-01-30T15:16:00;6.60;99.90
5222;DHT22;2630;52.036;8.514;2023-01-30T15:32:21;6.50;99.90
5222;DHT22;2630;52.036;8.514;2023-01-30T15:42:49;6.30;99.90
5222;DHT22;2630;52.036;8.514;2023-01-30T15:48:15;6.20;99.90
5222;DHT22;2630;52.036;8.514;2023-01-30T15:50:51;6.20;99.90
5222;DHT22;2630;52.036;8.514;2023-01-30T15:53:28;6.10;99.90
5222;DHT22;2630;52.036;8.514;2023-01-30T15:55:56;6.10;99.90
5222;DHT22;2630;52.036;8.514;2023-01-30T15:58:23;6.10;99.90
5222;DHT22;2630;52.036;8.514;2023-01-30T16:03:23;6.10;99.90
5222;DHT22;2630;52.036;8.514;2023-01-30T16:05:55;6.00;99.90
5222;DHT22;2630;52.036;8.514;2023-01-30T16:08:24;6.00;99.90
5222;DHT22;2630;52.036;8.514;2023-01-30T16:10:50;6.00;99.90
5222;DHT22;2630;52.036;8.514;2023-01-30T16:13:17;5.90;99.90
5222;DHT22;2630;52.036;8.514;2023-01-30T16:20:47;6.00;99.90
5222;DHT22;2630;52.036;8.514;2023-01-30T16:23:21;6.00;99.90
5222;DHT22;2630;52.036;8.514;2023-01-30T16:25:48;6.10;99.90
5222;DHT22;2630;52.036;8.514;2023-01-30T16:28:21;6.20;99.90
5222;DHT22;2630;52.036;8.514;2023-01-30T16:33:15;6.20;99.90
5222;DHT22;2630;52.036;8.514;2023-01-30T16:35:44;6.20;99.90
5222;DHT22;2630;52.036;8.514;2023-01-30T16:40:59;6.30;99.90
5222;DHT22;2630;52.036;8.514;2023-01-30T16:43:26;6.30;99.90
5222;DHT22;2630;52.036;8.514;2023-01-30T16:58:30;6.40;99.90
5222;DHT22;2630;52.036;8.514;2023-01-30T17:16:34;6.40;99.90
5222;DHT22;2630;52.036;8.514;2023-01-30T17:41:29;6.50;99.90
5222;DHT22;2630;52.036;8.514;2023-01-30T18:06:07;5.80;99.90
5222;DHT22;2630;52.036;8.514;2023-01-30T18:10:59;5.60;99.90
5222;DHT22;2630;52.036;8.514;2023-01-30T18:13:25;5.50;99.90
5222;DHT22;2630;52.036;8.514;2023-01-30T18:15:52;5.40;99.90
5222;DHT22;2630;52.036;8.514;2023-01-30T18:20:46;5.30;99.90
5222;DHT22;2630;52.036;8.514;2023-01-30T18:23:12;5.30;99.90
5222;DHT22;2630;52.036;8.514;2023-01-30T18:25:37;5.20;99.90
5222;DHT22;2630;52.036;8.514;2023-01-30T18:28:06;5.10;99.90
5222;DHT22;2630;52.036;8.514;2023-01-30T18:30:32;5.10;99.90
5222;DHT22;2630;52.036;8.514;2023-01-30T18:32:57;5.10;99.90
5222;DHT22;2630;52.036;8.514;2023-01-30T18:35:23;5.10;99.90
5222;DHT22;2630;52.036;8.514;2023-01-30T18:37:49;5.00;99.90
5222;DHT22;2630;52.036;8.514;2023-01-30T18:40:14;5.00;99.90
5222;DHT22;2630;52.036;8.514;2023-01-30T18:42:40;5.00;99.90
5222;DHT22;2630;52.036;8.514;2023-01-30T18:45:06;5.00;99.90
5222;DHT22;2630;52.036;8.514;2023-01-30T18:47:32;5.10;99.90
5222;DHT22;2630;52.036;8.514;2023-01-30T18:49:57;5.20;99.90
5222;DHT22;2630;52.036;8.514;2023-01-30T18:52:23;5.20;99.90
5222;DHT22;2630;52.036;8.514;2023-01-30T18:57:14;5.40;99.90
5222;DHT22;2630;52.036;8.514;2023-01-30T18:59:40;5.50;99.90
5222;DHT22;2630;52.036;8.514;2023-01-30T19:02:06;5.50;99.90
5222;DHT22;2630;52.036;8.514;2023-01-30T19:04:32;5.50;99.90
5222;DHT22;2630;52.036;8.514;2023-01-30T19:06:58;5.50;99.90
5222;DHT22;2630;52.036;8.514;2023-01-30T19:09:23;5.50;99.90
5222;DHT22;2630;52.036;8.514;2023-01-30T19:19:27;5.90;99.90
5222;DHT22;2630;52.036;8.514;2023-01-30T19:26:46;5.80;99.90
5222;DHT22;2630;52.036;8.514;2023-01-30T19:43:55;5.70;99.90
5222;DHT22;2630;52.036;8.514;2023-01-30T19:46:21;5.80;99.90
5222;DHT22;2630;52.036;8.514;2023-01-30T20:01:13;5.70;99.90
5222;DHT22;2630;52.036;8.514;2023-01-30T20:03:40;5.60;99.90
5222;DHT22;2630;52.036;8.514;2023-01-30T20:08:36;5.40;99.90
5222;DHT22;2630;52.036;8.514;2023-01-30T20:13:36;5.30;99.90
5222;DHT22;2630;52.036;8.514;2023-01-30T20:16:03;5.30;99.90
5222;DHT22;2630;52.036;8.514;2023-01-30T20:18:30;5.30;99.90
5222;DHT22;2630;52.036;8.514;2023-01-30T20:21:24;5.40;99.90
5222;DHT22;2630;52.036;8.514;2023-01-30T20:23:49;5.40;99.90
5222;DHT22;2630;52.036;8.514;2023-01-30T20:26:16;5.30;99.90
5222;DHT22;2630;52.036;8.514;2023-01-30T20:31:11;5.20;99.90
5222;DHT22;2630;52.036;8.514;2023-01-30T20:36:05;5.10;99.90
5222;DHT22;2630;52.036;8.514;2023-01-30T20:38:33;5.10;99.90
5222;DHT22;2630;52.036;8.514;2023-01-30T20:41:03;5.10;99.90
5222;DHT22;2630;52.036;8.514;2023-01-30T20:43:33;5.10;99.90
5222;DHT22;2630;52.036;8.514;2023-01-30T20:46:12;5.10;99.90
5222;DHT22;2630;52.036;8.514;2023-01-30T20:51:06;5.10;99.90
5222;DHT22;2630;52.036;8.514;2023-01-30T20:53:32;5.20;99.90
5222;DHT22;2630;52.036;8.514;2023-01-30T20:58:24;5.30;99.90
5222;DHT22;2630;52.036;8.514;2023-01-30T21:03:16;5.30;99.90
5222;DHT22;2630;52.036;8.514;2023-01-30T21:05:41;5.30;99.90
5222;DHT22;2630;52.036;8.514;2023-01-30T21:08:07;5.30;99.90
5222;DHT22;2630;52.036;8.514;2023-01-30T21:12:59;5.30;99.90
5222;DHT22;2630;52.036;8.514;2023-01-30T21:15:25;5.20;99.90
5222;DHT22;2630;52.036;8.514;2023-01-30T21:17:50;5.10;99.90
5222;DHT22;2630;52.036;8.514;2023-01-30T21:20:16;4.90;99.90
5222;DHT22;2630;52.036;8.514;2023-01-30T21:22:42;4.80;99.90
5222;DHT22;2630;52.036;8.514;2023-01-30T21:25:07;4.70;99.90
5222;DHT22;2630;52.036;8.514;2023-01-30T21:27:33;4.60;99.90
5222;DHT22;2630;52.036;8.514;2023-01-30T21:32:25;4.50;99.90
5222;DHT22;2630;52.036;8.514;2023-01-30T21:34:50;4.50;99.90
5222;DHT22;2630;52.036;8.514;2023-01-30T21:37:16;4.40;99.90
5222;DHT22;2630;52.036;8.514;2023-01-30T21:50:22;4.20;99.90
5222;DHT22;2630;52.036;8.514;2023-01-30T21:55:13;4.20;99.90
5222;DHT22;2630;52.036;8.514;2023-01-30T22:00:05;4.40;99.90
5222;DHT22;2630;52.036;8.514;2023-01-30T22:02:31;4.50;99.90
5222;DHT22;2630;52.036;8.514;2023-01-30T22:04:56;4.60;99.90
5222;DHT22;2630;52.036;8.514;2023-01-30T22:07:22;4.70;99.90
5222;DHT22;2630;52.036;8.514;2023-01-30T22:09:47;4.60;99.90
5222;DHT22;2630;52.036;8.514;2023-01-30T22:12:13;4.60;99.90
5222;DHT22;2630;52.036;8.514;2023-01-30T22:14:39;4.60;99.90
5222;DHT22;2630;52.036;8.514;2023-01-30T22:17:04;4.60;99.90
5222;DHT22;2630;52.036;8.514;2023-01-30T22:19:30;4.50;99.90
5222;DHT22;2630;52.036;8.514;2023-01-30T22:22:00;4.50;99.90
5222;DHT22;2630;52.036;8.514;2023-01-30T22:24:26;4.50;99.90
5222;DHT22;2630;52.036;8.514;2023-01-30T22:26:52;4.50;99.90
5222;DHT22;2630;52.036;8.514;2023-01-30T22:29:17;4.50;99.90
5222;DHT22;2630;52.036;8.514;2023-01-30T22:34:09;4.60;99.90
5222;DHT22;2630;52.036;8.514;2023-01-30T22:36:35;4.50;99.90
5222;DHT22;2630;52.036;8.514;2023-01-30T22:39:02;4.50;99.90
5222;DHT22;2630;52.036;8.514;2023-01-30T22:41:31;4.50;99.90
5222;DHT22;2630;52.036;8.514;2023-01-30T22:44:00;4.40;99.90
5222;DHT22;2630;52.036;8.514;2023-01-30T22:46:28;4.40;99.90
5222;DHT22;2630;52.036;8.514;2023-01-30T22:48:56;4.40;99.90
5222;DHT22;2630;52.036;8.514;2023-01-30T22:53:53;4.50;99.90
5222;DHT22;2630;52.036;8.514;2023-01-30T22:56:21;4.60;99.90
5222;DHT22;2630;52.036;8.514;2023-01-30T22:58:47;4.60;99.90
5222;DHT22;2630;52.036;8.514;2023-01-30T23:01:27;4.60;99.90
5222;DHT22;2630;52.036;8.514;2023-01-30T23:04:02;4.60;99.90
5222;DHT22;2630;52.036;8.514;2023-01-30T23:06:28;4.60;99.90
5222;DHT22;2630;52.036;8.514;2023-01-30T23:08:56;4.50;99.90
5222;DHT22;2630;52.036;8.514;2023-01-30T23:11:32;4.50;99.90
5222;DHT22;2630;52.036;8.514;2023-01-30T23:14:06;4.40;99.90
5222;DHT22;2630;52.036;8.514;2023-01-30T23:16:33;4.40;99.90
5222;DHT22;2630;52.036;8.514;2023-01-30T23:18:59;4.40;99.90
5222;DHT22;2630;52.036;8.514;2023-01-30T23:21:28;4.30;99.90
5222;DHT22;2630;52.036;8.514;2023-01-30T23:23:59;4.20;99.90
5222;DHT22;2630;52.036;8.514;2023-01-30T23:51:01;4.30;99.90
5222;DHT22;2630;52.036;8.514;2023-01-30T23:53:27;4.30;99.90
